Time;durP1;ratioP1;P1;durP2;ratioP2;P2;SDS_P1;SDS_P2;PMS_P1;PMS_P2;Temp;Humidity;BMP_temperature;BMP_pressure;BME280_temperature;BME280_humidity;BME280_pressure;Samples;Min_cycle;Max_cycle;Signal;HPM_P1;HPM_P2
2023/01/17 00:02:07;;;;;;;7.38;3.72;;;;;;;;;;5038389;28;20069;-49
2023/01/17 00:10:07;;;;;;;6.60;4.47;;;;;;;;;;5040522;28;20107;-51
2023/01/17 00:12:34;;;;;;;7.95;4.45;;;;;;;;;;5039712;28;20045;-50
2023/01/17 00:15:00;;;;;;;10.40;4.65;;;;;;;;;;5040443;28;20044;-49
2023/01/17 00:17:28;;;;;;;8.25;3.92;;;;;;;;;;5038557;28;20132;-52
2023/01/17 01:34:55;;;;;;;9.50;2.38;;;;;;;;;;5033590;28;20083;-51
2023/01/17 01:37:21;;;;;;;6.53;3.08;;;;;;;;;;5041654;28;20526;-51
2023/01/17 01:39:48;;;;;;;5.70;2.95;;;;;;;;;;5034434;28;20052;-54
2023/01/17 01:42:15;;;;;;;5.63;2.80;;;;;;;;;;5038785;28;20052;-50
2023/01/17 01:44:49;;;;;;;4.85;2.45;;;;;;;;;;5034532;28;20044;-52
2023/01/17 01:47:34;;;;;;;5.70;2.67;;;;;;;;;;5037221;28;20111;-49
2023/01/17 01:50:03;;;;;;;5.05;2.67;;;;;;;;;;5033849;28;20049;-50
2023/01/17 01:52:30;;;;;;;9.63;2.55;;;;;;;;;;5035658;28;20049;-53
2023/01/17 01:55:02;;;;;;;5.35;2.60;;;;;;;;;;5034603;28;20155;-52
2023/01/17 01:57:32;;;;;;;6.20;3.00;;;;;;;;;;5036076;28;20072;-53
2023/01/17 02:00:05;;;;;;;5.22;2.47;;;;;;;;;;5039091;28;20041;-51
2023/01/17 02:02:37;;;;;;;5.70;2.70;;;;;;;;;;5036226;28;20069;-52
2023/01/17 02:05:04;;;;;;;5.35;2.70;;;;;;;;;;5034922;28;20837;-49
2023/01/17 02:07:33;;;;;;;6.60;2.75;;;;;;;;;;5036847;28;20128;-55
2023/01/17 02:10:01;;;;;;;5.55;2.65;;;;;;;;;;5035494;28;20056;-50
2023/01/17 02:12:27;;;;;;;5.60;3.30;;;;;;;;;;5039926;28;20052;-51
2023/01/17 02:14:54;;;;;;;4.55;2.33;;;;;;;;;;5035361;28;20049;-52
2023/01/17 02:17:38;;;;;;;4.00;1.88;;;;;;;;;;5036649;28;20522;-49
2023/01/17 02:20:04;;;;;;;4.93;2.83;;;;;;;;;;5039209;28;20040;-52
2023/01/17 02:22:34;;;;;;;4.53;2.28;;;;;;;;;;5039991;28;20048;-50
2023/01/17 02:25:19;;;;;;;5.63;2.95;;;;;;;;;;5041311;28;20052;-51
2023/01/17 02:27:58;;;;;;;5.95;2.55;;;;;;;;;;5039338;28;20037;-53
2023/01/17 02:30:25;;;;;;;6.60;2.80;;;;;;;;;;5040143;28;20498;-49
2023/01/17 02:32:55;;;;;;;4.78;2.22;;;;;;;;;;5040848;28;20079;-50
2023/01/17 02:35:27;;;;;;;4.18;2.47;;;;;;;;;;5041842;28;20520;-51
2023/01/17 02:38:02;;;;;;;4.32;2.30;;;;;;;;;;5039297;28;20045;-50
2023/01/17 02:40:33;;;;;;;5.35;2.60;;;;;;;;;;5039066;28;20492;-49
2023/01/17 02:43:04;;;;;;;4.90;2.65;;;;;;;;;;5039728;28;20485;-49
2023/01/17 02:45:31;;;;;;;4.78;2.35;;;;;;;;;;5039064;28;20047;-53
2023/01/17 02:47:57;;;;;;;5.43;2.17;;;;;;;;;;5039443;28;20450;-49
2023/01/17 02:50:36;;;;;;;4.18;2.10;;;;;;;;;;5040850;28;20106;-51
2023/01/17 02:53:21;;;;;;;4.32;1.83;;;;;;;;;;5039790;28;20044;-50
2023/01/17 02:56:03;;;;;;;3.50;1.67;;;;;;;;;;5041463;28;20048;-53
2023/01/17 02:58:32;;;;;;;4.32;1.75;;;;;;;;;;5038213;28;20054;-51
2023/01/17 03:01:08;;;;;;;3.83;2.10;;;;;;;;;;5040813;28;20064;-48
2023/01/17 03:03:37;;;;;;;5.03;2.60;;;;;;;;;;5038567;28;20056;-51
2023/01/17 03:06:19;;;;;;;4.43;1.95;;;;;;;;;;5038232;28;20132;-49
2023/01/17 03:08:47;;;;;;;4.35;1.80;;;;;;;;;;5041144;28;20048;-51
2023/01/17 03:11:13;;;;;;;4.20;2.00;;;;;;;;;;5039168;28;20045;-48
2023/01/17 03:13:41;;;;;;;4.03;2.00;;;;;;;;;;5040625;28;20045;-52
2023/01/17 03:16:10;;;;;;;4.45;2.30;;;;;;;;;;5037575;28;20084;-54
2023/01/17 03:18:38;;;;;;;4.32;2.08;;;;;;;;;;5039936;28;20037;-52
2023/01/17 03:21:04;;;;;;;3.97;2.20;;;;;;;;;;5036786;28;20587;-52
2023/01/17 03:23:31;;;;;;;4.40;1.98;;;;;;;;;;5039525;28;20065;-49
2023/01/17 03:25:57;;;;;;;3.88;2.00;;;;;;;;;;5039007;28;20102;-50
2023/01/17 03:28:24;;;;;;;4.88;1.92;;;;;;;;;;5040996;28;20087;-51
2023/01/17 03:30:51;;;;;;;4.15;2.10;;;;;;;;;;5037358;28;20053;-52
2023/01/17 03:33:18;;;;;;;3.85;1.83;;;;;;;;;;5041334;28;20037;-50
2023/01/17 03:35:45;;;;;;;4.28;2.22;;;;;;;;;;5039134;28;20124;-50
2023/01/17 03:38:11;;;;;;;4.20;1.98;;;;;;;;;;5038689;28;20254;-52
2023/01/17 03:40:38;;;;;;;4.22;2.38;;;;;;;;;;5039525;28;20564;-55
2023/01/17 03:43:04;;;;;;;4.25;2.05;;;;;;;;;;5038886;28;20103;-56
2023/01/17 03:45:31;;;;;;;4.00;1.90;;;;;;;;;;5039373;28;20081;-53
2023/01/17 03:47:58;;;;;;;3.42;1.60;;;;;;;;;;5038910;28;20037;-55
2023/01/17 03:50:25;;;;;;;3.88;2.30;;;;;;;;;;5038712;28;20099;-51
2023/01/17 03:52:52;;;;;;;3.63;2.05;;;;;;;;;;5036106;28;20037;-55
2023/01/17 03:55:18;;;;;;;4.25;1.95;;;;;;;;;;5041286;28;20077;-54
2023/01/17 03:57:45;;;;;;;4.55;1.60;;;;;;;;;;5037994;28;20827;-49
2023/01/17 04:00:12;;;;;;;3.80;2.00;;;;;;;;;;5036270;28;20044;-52
2023/01/17 04:02:38;;;;;;;3.67;1.48;;;;;;;;;;5035395;28;20045;-50
2023/01/17 04:05:05;;;;;;;3.97;1.95;;;;;;;;;;5039604;28;20044;-54
2023/01/17 04:07:32;;;;;;;3.97;2.08;;;;;;;;;;5035562;28;20048;-49
2023/01/17 04:09:59;;;;;;;3.97;2.15;;;;;;;;;;5036965;28;20713;-52
2023/01/17 04:12:25;;;;;;;3.47;1.67;;;;;;;;;;5036724;28;20706;-51
2023/01/17 04:14:52;;;;;;;4.07;2.28;;;;;;;;;;5037265;28;20045;-52
2023/01/17 04:17:19;;;;;;;4.18;2.13;;;;;;;;;;5034795;28;20654;-53
2023/01/17 04:19:46;;;;;;;3.80;2.05;;;;;;;;;;5039258;28;20048;-51
2023/01/17 04:22:12;;;;;;;4.80;2.42;;;;;;;;;;5038884;28;20045;-51
2023/01/17 04:24:39;;;;;;;3.83;2.10;;;;;;;;;;5036545;28;20041;-50
2023/01/17 04:27:06;;;;;;;3.90;1.98;;;;;;;;;;5038694;28;20048;-53
2023/01/17 04:29:32;;;;;;;3.67;1.70;;;;;;;;;;5038433;28;20044;-54
2023/01/17 04:31:59;;;;;;;3.63;1.27;;;;;;;;;;5038236;28;20041;-52
2023/01/17 04:34:26;;;;;;;3.95;1.50;;;;;;;;;;5036163;28;20127;-51
2023/01/17 04:36:52;;;;;;;3.65;1.95;;;;;;;;;;5038371;28;20119;-50
2023/01/17 04:39:19;;;;;;;3.58;2.17;;;;;;;;;;5039592;28;20049;-51
2023/01/17 04:41:46;;;;;;;3.72;1.55;;;;;;;;;;5037324;28;20526;-52
2023/01/17 04:44:12;;;;;;;4.10;1.83;;;;;;;;;;5039111;28;20721;-52
2023/01/17 04:46:39;;;;;;;4.15;2.35;;;;;;;;;;5040842;28;20064;-55
2023/01/17 04:49:06;;;;;;;3.25;1.45;;;;;;;;;;5034386;28;20041;-55
2023/01/17 04:51:32;;;;;;;3.42;1.92;;;;;;;;;;5035178;28;20130;-54
2023/01/17 04:53:59;;;;;;;4.10;2.15;;;;;;;;;;5037241;28;20124;-51
2023/01/17 04:56:26;;;;;;;2.88;1.40;;;;;;;;;;5035631;28;20044;-55
2023/01/17 04:58:55;;;;;;;3.80;1.90;;;;;;;;;;5037552;28;20076;-54
2023/01/17 05:01:21;;;;;;;3.63;1.92;;;;;;;;;;5035544;28;20502;-49
2023/01/17 05:03:48;;;;;;;5.05;2.22;;;;;;;;;;5037303;28;20522;-54
2023/01/17 05:06:15;;;;;;;3.55;1.95;;;;;;;;;;5037863;28;20151;-52
2023/01/17 05:08:41;;;;;;;3.55;1.73;;;;;;;;;;5037680;28;20068;-52
2023/01/17 05:11:08;;;;;;;4.10;2.03;;;;;;;;;;5039316;28;20047;-51
2023/01/17 05:13:34;;;;;;;4.25;1.77;;;;;;;;;;5036962;28;20041;-53
2023/01/17 05:16:01;;;;;;;5.90;2.10;;;;;;;;;;5038382;28;20041;-52
2023/01/17 05:18:28;;;;;;;6.97;2.20;;;;;;;;;;5036743;28;20055;-50
2023/01/17 05:20:59;;;;;;;3.42;2.10;;;;;;;;;;5036898;28;20053;-49
2023/01/17 05:23:26;;;;;;;2.97;1.52;;;;;;;;;;5036519;28;20091;-51
2023/01/17 05:25:52;;;;;;;3.45;1.98;;;;;;;;;;5039109;28;20037;-52
2023/01/17 05:28:19;;;;;;;3.22;1.63;;;;;;;;;;5037341;28;20045;-50
2023/01/17 05:30:46;;;;;;;4.00;1.52;;;;;;;;;;5042953;28;20063;-49
2023/01/17 05:33:12;;;;;;;3.50;1.30;;;;;;;;;;5036633;28;20142;-49
2023/01/17 05:35:39;;;;;;;3.78;1.92;;;;;;;;;;5038117;28;20036;-51
2023/01/17 05:38:05;;;;;;;3.35;1.60;;;;;;;;;;5037406;28;20070;-50
2023/01/17 05:40:32;;;;;;;4.25;2.28;;;;;;;;;;5037520;28;20041;-51
2023/01/17 05:43:00;;;;;;;3.40;1.65;;;;;;;;;;5037583;28;20040;-51
2023/01/17 05:45:27;;;;;;;3.50;1.55;;;;;;;;;;5036679;28;20666;-52
2023/01/17 05:47:55;;;;;;;3.80;2.28;;;;;;;;;;5038582;28;20041;-53
2023/01/17 05:50:23;;;;;;;3.10;1.73;;;;;;;;;;5036777;28;20041;-53
2023/01/17 05:52:54;;;;;;;2.90;1.35;;;;;;;;;;5037930;28;20075;-50
2023/01/17 05:55:21;;;;;;;3.08;1.63;;;;;;;;;;5039497;28;20965;-48
2023/01/17 05:57:48;;;;;;;3.42;1.83;;;;;;;;;;5047386;28;20041;-51
2023/01/17 06:00:15;;;;;;;3.30;1.83;;;;;;;;;;5042858;28;20094;-50
2023/01/17 06:02:42;;;;;;;3.33;1.85;;;;;;;;;;5042325;28;20072;-54
2023/01/17 06:05:09;;;;;;;4.40;1.85;;;;;;;;;;5041001;28;20049;-51
2023/01/17 06:07:36;;;;;;;3.50;1.90;;;;;;;;;;5044831;28;20044;-49
2023/01/17 06:10:03;;;;;;;3.25;1.77;;;;;;;;;;5040810;28;20064;-48
2023/01/17 06:12:31;;;;;;;3.30;1.45;;;;;;;;;;5040912;28;20154;-49
2023/01/17 06:14:57;;;;;;;3.63;1.85;;;;;;;;;;5042094;28;20147;-49
2023/01/17 06:17:24;;;;;;;3.40;1.55;;;;;;;;;;5063193;28;21518;-52
2023/01/17 06:19:51;;;;;;;3.45;1.83;;;;;;;;;;5042534;28;20036;-50
2023/01/17 06:22:17;;;;;;;3.72;1.73;;;;;;;;;;5040942;28;20049;-49
2023/01/17 06:24:44;;;;;;;3.50;1.85;;;;;;;;;;5043806;28;21557;-51
2023/01/17 06:27:10;;;;;;;3.05;1.48;;;;;;;;;;5041783;28;20056;-53
2023/01/17 06:29:37;;;;;;;10.70;1.60;;;;;;;;;;5043504;28;20057;-52
2023/01/17 06:32:04;;;;;;;3.15;1.15;;;;;;;;;;5039425;28;20041;-51
2023/01/17 06:34:30;;;;;;;3.05;1.40;;;;;;;;;;5039661;28;20045;-49
2023/01/17 06:36:57;;;;;;;3.03;0.93;;;;;;;;;;5039937;28;20897;-48
2023/01/17 06:39:24;;;;;;;3.47;1.50;;;;;;;;;;5041310;28;20176;-53
2023/01/17 06:41:50;;;;;;;3.33;1.23;;;;;;;;;;5039365;28;20045;-52
2023/01/17 06:44:17;;;;;;;2.88;1.27;;;;;;;;;;5039207;28;20041;-49
2023/01/17 06:46:43;;;;;;;3.17;1.55;;;;;;;;;;5044335;28;20091;-51
2023/01/17 06:49:10;;;;;;;2.45;1.17;;;;;;;;;;5039308;28;20045;-48
2023/01/17 06:51:37;;;;;;;3.38;2.03;;;;;;;;;;5041638;28;20683;-51
2023/01/17 06:54:03;;;;;;;2.97;1.63;;;;;;;;;;5038294;28;20586;-48
2023/01/17 06:56:31;;;;;;;3.05;1.75;;;;;;;;;;5038032;28;20041;-49
2023/01/17 06:58:57;;;;;;;3.25;1.20;;;;;;;;;;5038882;28;20033;-50
2023/01/17 07:01:24;;;;;;;3.13;1.40;;;;;;;;;;5036516;28;20037;-51
2023/01/17 07:03:51;;;;;;;2.40;1.08;;;;;;;;;;5042228;28;20052;-50
2023/01/17 07:06:18;;;;;;;5.38;1.67;;;;;;;;;;5040172;28;20049;-48
2023/01/17 07:08:46;;;;;;;3.78;1.33;;;;;;;;;;5039905;28;20102;-51
2023/01/17 07:11:13;;;;;;;5.25;1.70;;;;;;;;;;5040124;28;20045;-48
2023/01/17 07:13:40;;;;;;;4.13;1.55;;;;;;;;;;5038449;28;20060;-47
2023/01/17 07:16:07;;;;;;;4.20;1.27;;;;;;;;;;5036718;28;20394;-50
2023/01/17 07:18:34;;;;;;;3.03;1.48;;;;;;;;;;5040186;28;20767;-48
2023/01/17 07:21:01;;;;;;;3.03;1.20;;;;;;;;;;5038408;28;20107;-50
2023/01/17 07:23:27;;;;;;;2.80;1.17;;;;;;;;;;5036217;28;20037;-46
2023/01/17 07:25:55;;;;;;;2.70;1.23;;;;;;;;;;5039578;28;20045;-46
2023/01/17 07:28:22;;;;;;;3.00;1.17;;;;;;;;;;5040419;28;20044;-47
2023/01/17 07:30:49;;;;;;;3.10;1.45;;;;;;;;;;5038285;28;20472;-46
2023/01/17 07:33:16;;;;;;;2.90;1.75;;;;;;;;;;5041838;28;20087;-51
2023/01/17 07:35:43;;;;;;;3.55;1.42;;;;;;;;;;5036595;28;20044;-50
2023/01/17 07:38:13;;;;;;;4.22;1.48;;;;;;;;;;5036374;28;20091;-49
2023/01/17 07:40:40;;;;;;;3.95;1.83;;;;;;;;;;5037713;28;21006;-51
2023/01/17 07:43:13;;;;;;;3.53;1.40;;;;;;;;;;5041490;28;20846;-51
2023/01/17 07:45:44;;;;;;;3.67;1.65;;;;;;;;;;5037398;28;20056;-50
2023/01/17 07:48:11;;;;;;;8.70;1.88;;;;;;;;;;5039159;28;20410;-50
2023/01/17 07:50:37;;;;;;;2.63;1.23;;;;;;;;;;5044335;28;20155;-49
2023/01/17 07:53:04;;;;;;;3.17;1.20;;;;;;;;;;5039231;28;20142;-48
2023/01/17 07:55:31;;;;;;;3.08;1.50;;;;;;;;;;5040417;28;20128;-51
2023/01/17 07:57:58;;;;;;;3.40;1.73;;;;;;;;;;5035704;28;20449;-50
2023/01/17 08:00:27;;;;;;;3.00;1.60;;;;;;;;;;5037104;28;20123;-48
2023/01/17 08:02:57;;;;;;;4.60;1.63;;;;;;;;;;5041196;28;20843;-49
2023/01/17 08:05:24;;;;;;;5.47;1.65;;;;;;;;;;5038514;28;20041;-48
2023/01/17 08:07:51;;;;;;;3.70;1.77;;;;;;;;;;5036074;28;20765;-49
2023/01/17 08:10:18;;;;;;;7.82;1.58;;;;;;;;;;5041062;28;20066;-45
2023/01/17 08:12:48;;;;;;;4.80;1.15;;;;;;;;;;5041428;28;20103;-48
2023/01/17 08:15:16;;;;;;;3.63;2.10;;;;;;;;;;5036659;28;20052;-47
2023/01/17 08:17:52;;;;;;;3.72;1.63;;;;;;;;;;5042938;28;20053;-49
2023/01/17 08:20:19;;;;;;;3.20;1.42;;;;;;;;;;5036369;28;20047;-48
2023/01/17 08:22:46;;;;;;;2.75;1.33;;;;;;;;;;5041072;28;20071;-49
2023/01/17 08:25:13;;;;;;;3.92;1.58;;;;;;;;;;5033764;28;20053;-47
2023/01/17 08:27:39;;;;;;;3.90;1.27;;;;;;;;;;5042587;28;20052;-45
2023/01/17 08:30:06;;;;;;;5.47;1.42;;;;;;;;;;5038200;28;20060;-45
2023/01/17 08:32:33;;;;;;;3.60;1.77;;;;;;;;;;5039720;28;20045;-46
2023/01/17 08:35:00;;;;;;;5.13;1.23;;;;;;;;;;5034101;28;20039;-45
2023/01/17 08:37:26;;;;;;;6.00;1.45;;;;;;;;;;5041501;28;20056;-44
2023/01/17 08:39:53;;;;;;;6.55;1.55;;;;;;;;;;5039499;28;20052;-44
2023/01/17 08:42:19;;;;;;;6.38;1.52;;;;;;;;;;5038338;28;20434;-43
2023/01/17 08:44:46;;;;;;;11.60;1.88;;;;;;;;;;5039144;28;20041;-45
2023/01/17 08:47:13;;;;;;;4.40;2.65;;;;;;;;;;5040555;28;20052;-45
2023/01/17 08:49:39;;;;;;;2.85;1.42;;;;;;;;;;5043685;28;20044;-48
2023/01/17 08:52:06;;;;;;;3.95;1.58;;;;;;;;;;5038570;28;20740;-46
2023/01/17 08:54:33;;;;;;;6.43;1.30;;;;;;;;;;5043026;28;20087;-44
2023/01/17 08:57:02;;;;;;;4.28;1.95;;;;;;;;;;5039933;28;20044;-44
2023/01/17 08:59:28;;;;;;;2.97;1.85;;;;;;;;;;5042477;28;20057;-44
2023/01/17 09:01:56;;;;;;;3.15;1.40;;;;;;;;;;5041122;28;20052;-45
2023/01/17 09:04:23;;;;;;;7.30;2.03;;;;;;;;;;5044531;28;20041;-44
2023/01/17 09:06:50;;;;;;;9.48;1.95;;;;;;;;;;5040296;28;20728;-44
2023/01/17 09:09:17;;;;;;;8.00;1.08;;;;;;;;;;5041421;28;20449;-45
2023/01/17 09:11:44;;;;;;;13.10;2.33;;;;;;;;;;5041531;28;20033;-46
2023/01/17 09:14:11;;;;;;;7.63;1.27;;;;;;;;;;5039177;28;20069;-45
2023/01/17 09:16:38;;;;;;;7.53;1.73;;;;;;;;;;5041863;28;20790;-46
2023/01/17 09:19:04;;;;;;;6.25;1.00;;;;;;;;;;5036450;28;20333;-43
2023/01/17 09:21:31;;;;;;;5.72;1.38;;;;;;;;;;5044790;28;20047;-44
2023/01/17 09:23:58;;;;;;;6.28;1.65;;;;;;;;;;5039728;28;20033;-44
2023/01/17 09:26:26;;;;;;;5.63;1.40;;;;;;;;;;5041816;28;20037;-43
2023/01/17 09:28:53;;;;;;;5.32;1.45;;;;;;;;;;5039144;28;20049;-45
2023/01/17 09:31:20;;;;;;;293.58;118.90;;;;;;;;;;5046157;28;20057;-46
2023/01/17 09:33:48;;;;;;;332.88;127.70;;;;;;;;;;5034539;28;20138;-45
2023/01/17 09:36:14;;;;;;;375.25;144.02;;;;;;;;;;5043815;28;20091;-48
2023/01/17 09:38:41;;;;;;;235.18;87.28;;;;;;;;;;5039797;28;20048;-48
2023/01/17 09:41:31;;;;;;;190.75;72.63;;;;;;;;;;5040428;28;20045;-52
2023/01/17 09:43:57;;;;;;;208.05;82.35;;;;;;;;;;5035761;28;20055;-47
2023/01/17 09:46:26;;;;;;;184.25;69.38;;;;;;;;;;5036674;28;20041;-46
2023/01/17 09:49:16;;;;;;;180.73;64.75;;;;;;;;;;5035990;28;20064;-54
2023/01/17 09:51:43;;;;;;;176.77;62.53;;;;;;;;;;5038233;28;20037;-45
2023/01/17 09:54:33;;;;;;;152.15;58.90;;;;;;;;;;5041316;28;20056;-43
2023/01/17 09:57:03;;;;;;;143.65;53.42;;;;;;;;;;5037214;28;20611;-46
2023/01/17 09:59:42;;;;;;;135.35;51.28;;;;;;;;;;5033722;28;20048;-48
2023/01/17 10:02:22;;;;;;;148.30;51.95;;;;;;;;;;5028989;28;20522;-49
2023/01/17 10:05:10;;;;;;;129.00;48.95;;;;;;;;;;5030906;28;20684;-51
2023/01/17 10:07:43;;;;;;;122.65;49.20;;;;;;;;;;5042456;28;20040;-52
2023/01/17 10:10:28;;;;;;;124.20;49.53;;;;;;;;;;5037435;28;20041;-48
2023/01/17 10:13:13;;;;;;;110.10;43.03;;;;;;;;;;5040492;28;20044;-53
2023/01/17 10:15:48;;;;;;;116.50;44.03;;;;;;;;;;5033233;28;20043;-52
2023/01/17 10:18:38;;;;;;;118.07;44.47;;;;;;;;;;5035123;28;20135;-48
2023/01/17 10:21:09;;;;;;;113.25;44.47;;;;;;;;;;5033070;28;20045;-49
2023/01/17 10:23:55;;;;;;;105.40;42.85;;;;;;;;;;5035456;28;20648;-48
2023/01/17 10:26:24;;;;;;;111.07;43.97;;;;;;;;;;5031229;28;20048;-53
2023/01/17 10:28:53;;;;;;;101.00;40.53;;;;;;;;;;5037267;28;20119;-54
2023/01/17 10:31:21;;;;;;;106.82;41.70;;;;;;;;;;5033804;28;20091;-59
2023/01/17 10:33:48;;;;;;;101.95;42.28;;;;;;;;;;5032138;28;20120;-48
2023/01/17 10:36:22;;;;;;;106.20;41.03;;;;;;;;;;5036200;28;20788;-50
2023/01/17 10:38:56;;;;;;;93.70;37.58;;;;;;;;;;5037730;28;20037;-51
2023/01/17 10:41:32;;;;;;;93.93;38.97;;;;;;;;;;5033168;28;21249;-49
2023/01/17 10:44:02;;;;;;;88.03;35.42;;;;;;;;;;5039182;28;20500;-50
2023/01/17 10:46:37;;;;;;;90.50;37.13;;;;;;;;;;5039735;28;20049;-50
2023/01/17 10:49:04;;;;;;;92.05;37.33;;;;;;;;;;5039522;28;20094;-56
2023/01/17 10:51:48;;;;;;;93.03;38.20;;;;;;;;;;5045671;28;20045;-53
2023/01/17 10:54:15;;;;;;;90.60;36.03;;;;;;;;;;5041658;28;20053;-54
2023/01/17 10:56:42;;;;;;;82.07;34.95;;;;;;;;;;5038794;28;20041;-52
2023/01/17 10:59:17;;;;;;;74.28;33.72;;;;;;;;;;5043940;28;20769;-54
2023/01/17 11:01:44;;;;;;;83.35;35.28;;;;;;;;;;5037776;28;20053;-56
2023/01/17 11:04:37;;;;;;;82.20;34.78;;;;;;;;;;5044809;28;20547;-54
2023/01/17 11:07:14;;;;;;;74.03;32.00;;;;;;;;;;5039862;28;20134;-57
2023/01/17 11:09:45;;;;;;;75.38;31.23;;;;;;;;;;5040272;28;20052;-55
2023/01/17 11:12:38;;;;;;;69.05;29.58;;;;;;;;;;5042534;28;20063;-53
2023/01/17 11:15:04;;;;;;;67.85;28.15;;;;;;;;;;5036310;28;20048;-50
2023/01/17 11:17:31;;;;;;;73.93;30.40;;;;;;;;;;5038878;28;20156;-52
2023/01/17 11:20:15;;;;;;;71.47;28.60;;;;;;;;;;5038096;28;20541;-52
2023/01/17 11:22:44;;;;;;;68.28;27.60;;;;;;;;;;5040360;28;20568;-57
2023/01/17 11:25:20;;;;;;;58.13;26.17;;;;;;;;;;5041516;28;20037;-55
2023/01/17 11:27:57;;;;;;;61.38;25.83;;;;;;;;;;5042466;28;20590;-54
2023/01/17 11:30:28;;;;;;;61.08;26.85;;;;;;;;;;5039977;28;20033;-52
2023/01/17 11:32:58;;;;;;;64.68;27.73;;;;;;;;;;5038138;28;20940;-51
2023/01/17 11:35:28;;;;;;;59.03;26.88;;;;;;;;;;5037774;28;20047;-54
2023/01/17 11:38:03;;;;;;;65.22;26.17;;;;;;;;;;5040104;28;20103;-54
2023/01/17 11:40:29;;;;;;;57.42;24.15;;;;;;;;;;5035423;28;20049;-56
2023/01/17 11:43:04;;;;;;;55.03;24.08;;;;;;;;;;5035519;28;20037;-51
2023/01/17 11:45:31;;;;;;;56.58;25.85;;;;;;;;;;5037374;28;20552;-52
2023/01/17 11:48:07;;;;;;;52.35;23.80;;;;;;;;;;5036953;28;20641;-54
2023/01/17 11:50:38;;;;;;;48.97;21.73;;;;;;;;;;5034768;28;20106;-55
2023/01/17 11:53:12;;;;;;;50.08;20.95;;;;;;;;;;5038661;28;20521;-51
2023/01/17 11:55:39;;;;;;;46.20;21.17;;;;;;;;;;5034878;28;20048;-53
2023/01/17 11:58:11;;;;;;;51.13;22.83;;;;;;;;;;5036252;28;20740;-52
2023/01/17 12:00:44;;;;;;;45.83;21.08;;;;;;;;;;5042989;28;20140;-54
2023/01/17 12:03:29;;;;;;;45.53;21.10;;;;;;;;;;5039629;28;20769;-53
2023/01/17 12:06:06;;;;;;;47.95;19.55;;;;;;;;;;5036439;28;20068;-51
2023/01/17 12:08:39;;;;;;;44.00;19.80;;;;;;;;;;5040232;28;20044;-53
2023/01/17 12:11:20;;;;;;;44.72;19.45;;;;;;;;;;5036417;28;20597;-51
2023/01/17 12:14:00;;;;;;;42.90;18.25;;;;;;;;;;5036564;28;20135;-52
2023/01/17 12:16:35;;;;;;;37.35;17.30;;;;;;;;;;5037393;28;20075;-51
2023/01/17 12:19:20;;;;;;;27.38;11.52;;;;;;;;;;5040992;28;20600;-51
2023/01/17 12:21:50;;;;;;;28.92;13.32;;;;;;;;;;5037815;28;20037;-50
2023/01/17 12:24:40;;;;;;;31.75;13.70;;;;;;;;;;5036394;28;20851;-53
2023/01/17 12:27:23;;;;;;;18.35;7.32;;;;;;;;;;5036799;28;20045;-51
2023/01/17 12:29:57;;;;;;;28.05;10.32;;;;;;;;;;5031868;28;20128;-52
2023/01/17 12:32:44;;;;;;;16.67;6.07;;;;;;;;;;5041794;28;20103;-51
2023/01/17 12:35:16;;;;;;;16.77;7.15;;;;;;;;;;5032229;28;20115;-50
2023/01/17 12:37:43;;;;;;;15.55;6.57;;;;;;;;;;5043771;28;20032;-52
2023/01/17 12:40:11;;;;;;;21.75;6.82;;;;;;;;;;5033900;28;20572;-51
2023/01/17 12:42:39;;;;;;;20.10;7.63;;;;;;;;;;5036019;28;20049;-48
2023/01/17 12:45:10;;;;;;;16.85;6.35;;;;;;;;;;5030964;28;20040;-49
2023/01/17 12:47:41;;;;;;;16.30;6.32;;;;;;;;;;5035028;28;20135;-48
2023/01/17 12:50:24;;;;;;;16.45;6.88;;;;;;;;;;5033496;28;20700;-49
2023/01/17 12:53:09;;;;;;;16.13;6.07;;;;;;;;;;5038658;28;20052;-50
2023/01/17 12:55:51;;;;;;;18.13;6.88;;;;;;;;;;5034971;28;20053;-47
2023/01/17 12:58:33;;;;;;;16.30;6.90;;;;;;;;;;5034204;28;20057;-50
2023/01/17 13:01:03;;;;;;;15.02;6.18;;;;;;;;;;5039265;28;20049;-50
2023/01/17 13:03:56;;;;;;;16.77;6.38;;;;;;;;;;5033840;28;20045;-48
2023/01/17 13:06:30;;;;;;;14.88;6.57;;;;;;;;;;5026178;28;20037;-50
2023/01/17 13:08:59;;;;;;;16.88;5.85;;;;;;;;;;5038942;28;20102;-51
2023/01/17 13:11:29;;;;;;;20.15;6.35;;;;;;;;;;5035985;28;20051;-50
2023/01/17 13:13:58;;;;;;;12.73;4.65;;;;;;;;;;5032438;28;20052;-48
2023/01/17 13:16:25;;;;;;;15.88;5.85;;;;;;;;;;5039109;28;20055;-50
2023/01/17 13:18:52;;;;;;;14.32;6.00;;;;;;;;;;5032802;28;20060;-48
2023/01/17 13:21:29;;;;;;;12.68;5.78;;;;;;;;;;5035292;28;20056;-50
2023/01/17 13:24:00;;;;;;;14.18;5.97;;;;;;;;;;5035469;28;20110;-52
2023/01/17 13:26:27;;;;;;;13.25;5.03;;;;;;;;;;5033947;28;20040;-47
2023/01/17 13:29:00;;;;;;;10.88;5.68;;;;;;;;;;5034006;28;20044;-48
2023/01/17 13:31:47;;;;;;;11.65;5.40;;;;;;;;;;5043045;28;20045;-47
2023/01/17 13:34:26;;;;;;;14.02;4.45;;;;;;;;;;5032832;28;20049;-48
2023/01/17 13:37:03;;;;;;;10.52;4.22;;;;;;;;;;5033587;28;20044;-48
2023/01/17 13:39:48;;;;;;;10.60;4.78;;;;;;;;;;5042533;28;20072;-49
2023/01/17 13:42:18;;;;;;;12.20;5.05;;;;;;;;;;5035636;28;20049;-49
2023/01/17 13:44:45;;;;;;;11.10;4.32;;;;;;;;;;5031927;28;20914;-52
2023/01/17 13:47:17;;;;;;;11.13;4.07;;;;;;;;;;5041058;28;20041;-51
2023/01/17 13:49:46;;;;;;;10.20;4.15;;;;;;;;;;5034483;28;20505;-52
2023/01/17 13:52:19;;;;;;;13.23;6.03;;;;;;;;;;5035175;28;20630;-51
2023/01/17 13:54:49;;;;;;;10.90;4.68;;;;;;;;;;5034494;28;20056;-49
2023/01/17 13:57:24;;;;;;;10.60;4.13;;;;;;;;;;5036683;28;20095;-49
2023/01/17 13:59:55;;;;;;;11.80;4.18;;;;;;;;;;5036892;28;20048;-48
2023/01/17 14:02:31;;;;;;;9.48;3.80;;;;;;;;;;5040725;28;20550;-52
2023/01/17 14:05:14;;;;;;;11.63;4.50;;;;;;;;;;5033381;28;20051;-50
2023/01/17 14:08:00;;;;;;;15.45;5.65;;;;;;;;;;5032636;28;20144;-47
2023/01/17 14:10:27;;;;;;;9.52;3.80;;;;;;;;;;5036017;28;20640;-50
2023/01/17 14:12:54;;;;;;;11.23;4.43;;;;;;;;;;5034736;28;20049;-51
2023/01/17 14:15:22;;;;;;;12.18;3.58;;;;;;;;;;5038656;28;20079;-50
2023/01/17 14:17:50;;;;;;;12.13;5.13;;;;;;;;;;5039009;28;20041;-50
2023/01/17 14:20:17;;;;;;;9.30;4.55;;;;;;;;;;5043417;28;20052;-51
2023/01/17 14:22:49;;;;;;;9.68;5.10;;;;;;;;;;5038573;28;20633;-52
2023/01/17 14:25:18;;;;;;;9.05;4.30;;;;;;;;;;5037848;28;20737;-49
2023/01/17 14:27:47;;;;;;;9.30;3.60;;;;;;;;;;5038663;28;20597;-51
2023/01/17 14:30:17;;;;;;;7.70;3.80;;;;;;;;;;5038443;28;20526;-48
2023/01/17 14:33:07;;;;;;;7.15;3.35;;;;;;;;;;5042304;28;20041;-47
2023/01/17 14:35:35;;;;;;;4.25;1.40;;;;;;;;;;5045795;28;20748;-50
2023/01/17 14:38:04;;;;;;;3.55;1.40;;;;;;;;;;5039256;28;20041;-49
2023/01/17 14:40:32;;;;;;;4.75;1.65;;;;;;;;;;5038872;28;20065;-50
2023/01/17 14:43:12;;;;;;;3.92;1.67;;;;;;;;;;5039773;28;20037;-47
2023/01/17 14:45:40;;;;;;;4.82;1.60;;;;;;;;;;5039030;28;20052;-49
2023/01/17 14:48:14;;;;;;;2.78;1.65;;;;;;;;;;5039801;28;20689;-54
2023/01/17 14:50:43;;;;;;;3.63;0.82;;;;;;;;;;5039718;28;20045;-58
2023/01/17 14:53:11;;;;;;;4.13;0.85;;;;;;;;;;5037745;28;20136;-58
2023/01/17 14:55:38;;;;;;;3.75;0.73;;;;;;;;;;5039724;28;20041;-60
2023/01/17 14:58:04;;;;;;;2.85;1.13;;;;;;;;;;5038367;28;20059;-59
2023/01/17 15:00:37;;;;;;;2.08;0.85;;;;;;;;;;5042759;28;20577;-59
2023/01/17 15:03:03;;;;;;;5.60;0.68;;;;;;;;;;5038848;28;20060;-59
2023/01/17 15:05:30;;;;;;;3.92;1.02;;;;;;;;;;5039004;28;20581;-59
2023/01/17 15:07:57;;;;;;;4.47;0.88;;;;;;;;;;5036168;28;20126;-59
2023/01/17 15:10:26;;;;;;;4.40;0.80;;;;;;;;;;5040239;28;20045;-60
2023/01/17 15:12:53;;;;;;;2.72;1.00;;;;;;;;;;5040837;28;20053;-59
2023/01/17 15:15:31;;;;;;;2.08;0.70;;;;;;;;;;5038556;28;20045;-58
2023/01/17 15:18:07;;;;;;;2.95;0.80;;;;;;;;;;5041613;28;20143;-60
2023/01/17 15:20:34;;;;;;;3.45;0.90;;;;;;;;;;5036480;28;20045;-59
2023/01/17 15:23:01;;;;;;;1.80;0.65;;;;;;;;;;5040369;28;20118;-59
2023/01/17 15:25:29;;;;;;;3.92;0.70;;;;;;;;;;5037947;28;20517;-59
2023/01/17 15:27:56;;;;;;;2.35;0.70;;;;;;;;;;5035141;28;20059;-58
2023/01/17 15:30:24;;;;;;;77.15;29.23;;;;;;;;;;5037752;28;20053;-58
2023/01/17 15:32:51;;;;;;;361.20;134.30;;;;;;;;;;5038525;28;20067;-58
2023/01/17 15:35:19;;;;;;;294.13;114.03;;;;;;;;;;5038183;28;21276;-58
2023/01/17 15:37:46;;;;;;;;;;;;;;;;;;5037595;28;20877;-59
2023/01/17 15:40:12;;;;;;;;;;;;;;;;;;5037623;28;19956;-58
2023/01/17 15:42:41;;;;;;;89.70;32.58;;;;;;;;;;5033688;28;19925;-58
2023/01/17 15:45:14;;;;;;;91.30;34.80;;;;;;;;;;5036225;28;20038;-58
2023/01/17 15:47:41;;;;;;;82.90;27.30;;;;;;;;;;5037507;28;20859;-59
2023/01/17 15:50:26;;;;;;;70.57;26.25;;;;;;;;;;5039097;28;20126;-58
2023/01/17 15:52:55;;;;;;;66.05;24.60;;;;;;;;;;5032764;28;20457;-58
2023/01/17 15:55:28;;;;;;;66.00;22.77;;;;;;;;;;5040570;28;20053;-59
2023/01/17 15:57:55;;;;;;;392.25;42.22;;;;;;;;;;5037388;28;20197;-48
2023/01/17 16:00:37;;;;;;;187.95;21.42;;;;;;;;;;5037160;28;20041;-50
2023/01/17 16:03:18;;;;;;;82.10;10.07;;;;;;;;;;5036092;28;20087;-46
2023/01/17 16:05:45;;;;;;;82.43;9.05;;;;;;;;;;5038381;28;20037;-46
2023/01/17 16:08:15;;;;;;;82.88;7.20;;;;;;;;;;5035263;28;20061;-45
2023/01/17 16:10:42;;;;;;;40.72;4.80;;;;;;;;;;5038377;28;20114;-46
2023/01/17 16:13:09;;;;;;;24.33;2.83;;;;;;;;;;5034647;28;20048;-46